Darstellungsparameter: Aktuell verwendete Einstellungen:
Skalierung der Graphiken ... ?
xyx+y,   Skalierungsfaktor:      Skalierung: Modus: x, Faktor: 1
Darstellungszeitraum ... ?
Vom - - bis: - -   Zeitraum: 25.07.2021 - 25.07.2021
Min/Max/Avg-Anzeige ... ?
Zeige MMA aktuell
Zeige MMA Monat
Zeige MMA alles
Zeige --A aktuell
Zeige --A Monat
Zeige --A alles
Keine MMA-Anzeige
MMA:
Average (ber die Originaldaten)
MMA-Basis: 25.07.2021 - 25.07.2021
Quicknavigation für Darstellung... ?
Tage:      1T, 2T, 3T, 5T -1T -2T -3T -5T +1T +2T +3T +5T
Wochen: 1W, 2W, 3W -1W -2W -3W +1W +2W +3W
Monate: 1M, 3M, 6M -1M -3M -6M +1M +3M +6M
Jahre:    1J, 3J, 5J, 10J -1J -3J -5J -10J +1J +3J +5J +10J
Nutze für die Darstellung ... ?
Originaldaten oder Mittelwerte auf ...
Stundenbasis Tagesbasis Wochenbasis
Monatsbasis Jahresbasis      Datenbasis: Original-Daten
Darstellen als:
Statistik (Auto) Statistik J:M      Darstellung:

Der gewünschte Datumsbereich war nicht gültig/verfügbar und wurde korrigiert....
Das angegebene Enddatum (26.09.2021 23:59:59) liegt in der Zukunft.
Das angegebene Startdatum (26.09.2021 00:00:00) liegt in der Zukunft.


Zur Graphik,    zurück zur Übersicht aller Sensoren.
 
Tabellarische Datenbersicht: ?
 
Sensor: Nr:Datum:Temp:Abs-Feuchte:Windchill:Wind:
Aussen-T/F 1 25-07-2021 02:00:00 16.2 C 13.24 g/m*3 16.2 C 0 km/h
2 25-07-2021 02:05:00 16.1 C 13.16 g/m*3 16.1 C 0 km/h
3 25-07-2021 02:10:00 16.1 C 13.16 g/m*3 16.1 C 0 km/h
4 25-07-2021 02:15:00 16.1 C 13.16 g/m*3 16.1 C 0 km/h
5 25-07-2021 02:20:00 16 C 13.08 g/m*3 16 C 0 km/h
6 25-07-2021 02:25:00 15.9 C 13 g/m*3 15.9 C 0 km/h
7 25-07-2021 02:30:00 15.9 C 13 g/m*3 15.9 C 0 km/h
8 25-07-2021 02:35:00 15.9 C 13 g/m*3 15.9 C 0 km/h
9 25-07-2021 02:40:00 15.9 C 13 g/m*3 15.9 C 0 km/h
10 25-07-2021 02:45:00 16 C 13.22 g/m*3 16 C 0 km/h
11 25-07-2021 02:50:00 16.1 C 13.16 g/m*3 16.1 C 0 km/h
12 25-07-2021 02:55:00 16.1 C 13.3 g/m*3 16.1 C 0 km/h
13 25-07-2021 03:00:00 16.2 C 13.38 g/m*3 16.2 C 0 km/h
14 25-07-2021 03:05:00 16.2 C 13.38 g/m*3 16.2 C 0 km/h
15 25-07-2021 03:10:00 16.2 C 13.38 g/m*3 16.2 C 0 km/h
16 25-07-2021 03:15:00 16.3 C 13.46 g/m*3 16.3 C 0 km/h
17 25-07-2021 03:20:00 16.3 C 13.46 g/m*3 16.3 C 0 km/h
18 25-07-2021 03:25:00 16.2 C 13.38 g/m*3 16.2 C 0 km/h
19 25-07-2021 03:30:00 16.1 C 13.16 g/m*3 16.1 C 0 km/h
20 25-07-2021 03:35:00 15.9 C 13 g/m*3 15.9 C 0 km/h
21 25-07-2021 03:40:00 15.8 C 12.92 g/m*3 15.8 C 0 km/h
22 25-07-2021 03:45:00 15.7 C 12.84 g/m*3 15.7 C 0 km/h
23 25-07-2021 03:50:00 15.6 C 12.77 g/m*3 15.6 C 0 km/h
24 25-07-2021 03:55:00 15.6 C 12.77 g/m*3 15.6 C 1.6 km/h
25 25-07-2021 04:00:00 15.6 C 12.9 g/m*3 15.6 C 0 km/h
Sensor: Nr:Datum:Temp:Abs-Feuchte:Windchill:Wind:
Aussen-T/F 26 25-07-2021 04:05:00 15.6 C 12.9 g/m*3 15.6 C 1.6 km/h
27 25-07-2021 04:10:00 15.5 C 12.69 g/m*3 15.5 C 0 km/h
28 25-07-2021 04:15:00 15.4 C 12.61 g/m*3 15.4 C 0 km/h
29 25-07-2021 04:20:00 15.3 C 12.54 g/m*3 15.3 C 0 km/h
30 25-07-2021 04:25:00 15.2 C 12.46 g/m*3 15.2 C 0 km/h
31 25-07-2021 04:30:00 15.2 C 12.46 g/m*3 15.2 C 0 km/h
32 25-07-2021 04:35:00 15.1 C 12.39 g/m*3 15.1 C 0 km/h
33 25-07-2021 04:40:00 15.1 C 12.39 g/m*3 15.1 C 0 km/h
34 25-07-2021 04:45:00 15.1 C 12.39 g/m*3 15.1 C 0 km/h
35 25-07-2021 04:50:00 15.1 C 12.39 g/m*3 15.1 C 0 km/h
36 25-07-2021 04:55:00 15 C 12.31 g/m*3 15 C 0 km/h
37 25-07-2021 05:00:00 14.9 C 12.24 g/m*3 14.9 C 0 km/h
38 25-07-2021 05:05:00 14.9 C 12.36 g/m*3 14.9 C 0 km/h
39 25-07-2021 05:10:00 14.9 C 12.36 g/m*3 14.9 C 0 km/h
40 25-07-2021 05:15:00 14.9 C 12.36 g/m*3 14.9 C 0 km/h
41 25-07-2021 05:20:00 15 C 12.44 g/m*3 15 C 0 km/h
42 25-07-2021 05:25:00 15 C 12.44 g/m*3 15 C 0 km/h
43 25-07-2021 05:30:00 15 C 12.44 g/m*3 15 C 0 km/h
44 25-07-2021 05:35:00 15 C 12.44 g/m*3 15 C 0 km/h
45 25-07-2021 05:40:00 15 C 12.44 g/m*3 15 C 0 km/h
46 25-07-2021 05:45:00 15.1 C 12.51 g/m*3 15.1 C 0 km/h
47 25-07-2021 05:50:00 15.2 C 12.59 g/m*3 15.2 C 0 km/h
48 25-07-2021 05:55:00 15.3 C 12.67 g/m*3 15.3 C 0 km/h
49 25-07-2021 06:00:00 15.3 C 12.67 g/m*3 15.3 C 0 km/h
50 25-07-2021 06:05:00 15.3 C 12.67 g/m*3 15.3 C 0 km/h
Sensor: Nr:Datum:Temp:Abs-Feuchte:Windchill:Wind:
Aussen-T/F 51 25-07-2021 06:10:00 15.4 C 12.74 g/m*3 15.4 C 0 km/h
52 25-07-2021 06:15:00 15.4 C 12.74 g/m*3 15.4 C 0 km/h
53 25-07-2021 06:20:00 15.4 C 12.74 g/m*3 15.4 C 0 km/h
54 25-07-2021 06:25:00 15.4 C 12.74 g/m*3 15.4 C 0 km/h
55 25-07-2021 06:30:00 15.4 C 12.74 g/m*3 15.4 C 0 km/h
56 25-07-2021 06:35:00 15.4 C 12.74 g/m*3 15.4 C 0 km/h
57 25-07-2021 06:40:00 15.4 C 12.74 g/m*3 15.4 C 0 km/h
58 25-07-2021 06:45:00 15.5 C 12.82 g/m*3 15.5 C 0 km/h
59 25-07-2021 06:50:00 15.6 C 12.9 g/m*3 15.6 C 0 km/h
60 25-07-2021 06:55:00 15.7 C 12.98 g/m*3 15.7 C 0 km/h
61 25-07-2021 07:00:00 15.7 C 12.98 g/m*3 15.7 C 0 km/h
62 25-07-2021 07:05:00 15.8 C 13.06 g/m*3 15.8 C 0 km/h
63 25-07-2021 07:10:00 15.9 C 13.14 g/m*3 15.9 C 0 km/h
64 25-07-2021 07:15:00 16.1 C 13.3 g/m*3 16.1 C 0 km/h
65 25-07-2021 07:20:00 16.2 C 13.38 g/m*3 16.2 C 0 km/h
66 25-07-2021 07:25:00 16.3 C 13.46 g/m*3 16.3 C 0 km/h
67 25-07-2021 07:30:00 16.3 C 13.6 g/m*3 16.3 C 0 km/h
68 25-07-2021 07:35:00 16.4 C 13.68 g/m*3 16.4 C 0 km/h
69 25-07-2021 07:40:00 16.4 C 13.54 g/m*3 16.4 C 0 km/h
70 25-07-2021 07:45:00 16.4 C 13.54 g/m*3 16.4 C 0 km/h
71 25-07-2021 07:50:00 16.4 C 13.54 g/m*3 16.4 C 0 km/h
72 25-07-2021 07:55:00 16.4 C 13.54 g/m*3 16.4 C 0 km/h
73 25-07-2021 08:00:00 16.4 C 13.54 g/m*3 16.4 C 0 km/h
74 25-07-2021 08:05:00 16.4 C 13.54 g/m*3 16.4 C 0 km/h
75 25-07-2021 08:10:00 16.4 C 13.54 g/m*3 16.4 C 0 km/h
Sensor: Nr:Datum:Temp:Abs-Feuchte:Windchill:Wind:
Aussen-T/F 76 25-07-2021 08:15:00 16.5 C 13.62 g/m*3 16.5 C 0 km/h
77 25-07-2021 08:20:00 16.6 C 13.7 g/m*3 16.6 C 1.6 km/h
78 25-07-2021 08:25:00 16.7 C 13.93 g/m*3 16.7 C 0 km/h
79 25-07-2021 08:30:00 16.8 C 14.01 g/m*3 16.8 C 4.8 km/h
80 25-07-2021 08:35:00 17 C 14.18 g/m*3 17 C 6.4 km/h
81 25-07-2021 08:40:00 17.1 C 14.27 g/m*3 17.1 C 3.2 km/h
82 25-07-2021 08:45:00 17.1 C 14.27 g/m*3 17.1 C 3.2 km/h
83 25-07-2021 08:50:00 17.2 C 14.35 g/m*3 17.2 C 0 km/h
84 25-07-2021 08:55:00 17.2 C 14.2 g/m*3 17.2 C 0 km/h
85 25-07-2021 09:00:00 17.3 C 14.29 g/m*3 17.3 C 1.6 km/h
86 25-07-2021 09:05:00 17.3 C 14.29 g/m*3 17.3 C 4.8 km/h
87 25-07-2021 09:10:00 17.4 C 14.38 g/m*3 17.4 C 4.8 km/h
88 25-07-2021 09:15:00 17.4 C 14.52 g/m*3 17.4 C 1.6 km/h
89 25-07-2021 09:20:00 17.6 C 14.55 g/m*3 17.6 C 6.4 km/h

Legende:
   Min
   Max


Maximal/Minimal-Werte vom 25.07.2021 - 25.07.2021

Sensor Min Max Avg
Temp
(Aussen-T/F)
14.9 °C
25-07-2021  05:00:00
17.6 °C
25-07-2021  09:20:00
15.91 °C
Abs-Feuchte
(Aussen-T/F)
12.24 g/m*3
25-07-2021  05:00:00
14.55 g/m*3
25-07-2021  09:20:00
12.98 g/m*3
Windchill
(Aussen-T/F)
14.9 C
25-07-2021  05:00:00
17.6 C
25-07-2021  09:20:00
15.73 C

Die Daten stammen von einer Davis Vantage Pro 2 Wetter-Station und werden unter Linux mit der Software wview2wettercgi und aufbereitet. Alle Angaben erfolgen ohne Gewähr für ihre Vollständigkeit oder Richtigkeit.
Kontakt: Rainer Krienke krienke@uni-koblenz.de . Meine Webseiten an der Uni Koblenz oder privat.
Version: $Revision: 0.78 $